Florence, MO

1:08 PM CDT on September 02, 2014 (GMT -0500)
Sedalia Memorial | Change Station
CLOSE
Current Station
Airport
Location: Sedalia,
Elevation: 909 ft
Nearby Weather Stations

Elev 909 ft 38.71 °N, 93.18 °W | Updated 15 minutes ago

Overcast
Overcast
75 °F
Feels Like 75 °F
N
10
Wind Variable Wind from SSW

Today
High -- | Low -- °F
--% Chance of Precip.
Yesterday
High -- | Low -- °F
Precip. -- in
6:42 AM 7:40 PM
First Quarter, 53% visible
Pressure 30.02 in
Visibility 8.0 miles
Clouds Mostly Cloudy 1200 ft
Mostly Cloudy 1800 ft
Overcast 3200 ft
Dew Point 70 °F
Humidity 84%
Rainfall 0.00 in
Snow Depth Not available.
UV 3 out of 12
Pollen 7.40 out of 12
Air Quality Not available.
Flu Activity Not available.
METAR KDMO 021753Z AUTO 21009KT 8SM BKN012 BKN018 OVC032 24/21 A3004 RMK AO2 SLP164 T02390211 10250 20217 53011

More Conditions Fewer Conditions

Pressure 30.02 in
Visibility 8.0 miles
Clouds Mostly Cloudy 1200 ft
Mostly Cloudy 1800 ft
Overcast 3200 ft
Dew Point 70 °F
Humidity 84%
Rainfall 0.00 in
Snow Depth Not available.
UV 3 out of 12
Pollen 7.40 out of 12
Air Quality Not available.
Flu Activity Not available.
METAR KDMO 021753Z AUTO 21009KT 8SM BKN012 BKN018 OVC032 24/21 A3004 RMK AO2 SLP164 T02390211 10250 20217 53011

More Conditions Fewer Conditions

10-Day Weather Forecast

Almanac

Astronomy

Sep. 02, 2014 Rise Set
Actual Time 6:42 AM CDT 7:40 PM CDT
Civil Twilight 6:14 AM CDT 8:07 PM CDT
Nautical Twilight 5:42 AM CDT 8:39 PM CDT
Astronomical Twilight 5:09 AM CDT 9:13 PM CDT
Moon 2:22 PM CDT No Moon Set
Length of Visible Light 13h 52m
Length of Day
12h 58m
Tomorrow will be 2m 24s shorter.
First Quarter, 53% of the Moon is Illuminated
Today
First Quarter
Sep 8
Full
Sep 15
Last Quarter
Sep 24
New
Oct 1
First Quarter

Today's Extremes

State Highs State Lows

Community

WunderPhotos

Upload Photos

1,749,724 photos uploaded!

WunderBlogs® & News

Nearby

Snow Depth

Station Depth Elevation
No new snow has been reported.

Earthquake Activity

City Distance Mag. Time & Date
No recent earthquake activity has been reported nearby.
Minimum magnitude displayed is 2.5.

Coastal Water Temperatures

Place Temperature
No Stations Reporting

Nearby Weather Stations